sensor_id;sensor_type;location;lat;lon;timestamp;temperature;humidity
35463;DHT22;21578;47.892;9.970;2023-08-31T03:53:59;12.60;96.60
35463;DHT22;21578;47.892;9.970;2023-08-31T03:58:46;12.60;96.60
35463;DHT22;21578;47.892;9.970;2023-08-31T04:03:33;12.70;96.60
35463;DHT22;21578;47.892;9.970;2023-08-31T18:20:05;15.50;96.60
35463;DHT22;21578;47.892;9.970;2023-08-31T18:24:53;15.40;96.60
35463;DHT22;21578;47.892;9.970;2023-08-31T18:29:40;15.30;96.60
35463;DHT22;21578;47.892;9.970;2023-08-31T18:34:26;15.20;96.60
35463;DHT22;21578;47.892;9.970;2023-08-31T18:39:16;15.20;96.60
35463;DHT22;21578;47.892;9.970;2023-08-31T18:44:04;15.10;96.60
35463;DHT22;21578;47.892;9.970;2023-08-31T18:48:51;15.00;96.60
35463;DHT22;21578;47.892;9.970;2023-08-31T18:53:39;15.00;96.60
35463;DHT22;21578;47.892;9.970;2023-08-31T18:58:27;15.00;96.60
35463;DHT22;21578;47.892;9.970;2023-08-31T19:03:14;14.90;96.60
35463;DHT22;21578;47.892;9.970;2023-08-31T19:08:01;14.90;96.60
35463;DHT22;21578;47.892;9.970;2023-08-31T19:12:48;14.80;96.60
35463;DHT22;21578;47.892;9.970;2023-08-31T19:17:36;14.80;96.60
35463;DHT22;21578;47.892;9.970;2023-08-31T19:22:23;14.80;96.60
35463;DHT22;21578;47.892;9.970;2023-08-31T19:27:10;14.70;96.60
35463;DHT22;21578;47.892;9.970;2023-08-31T19:31:57;14.70;96.60
35463;DHT22;21578;47.892;9.970;2023-08-31T19:36:46;14.60;96.60
35463;DHT22;21578;47.892;9.970;2023-08-31T19:41:35;14.60;96.60
35463;DHT22;21578;47.892;9.970;2023-08-31T19:46:22;14.60;96.60
35463;DHT22;21578;47.892;9.970;2023-08-31T19:51:08;14.70;96.60
35463;DHT22;21578;47.892;9.970;2023-08-31T19:55:57;14.60;96.60
35463;DHT22;21578;47.892;9.970;2023-08-31T20:00:44;14.70;96.60
35463;DHT22;21578;47.892;9.970;2023-08-31T20:05:31;14.60;96.60
35463;DHT22;21578;47.892;9.970;2023-08-31T20:10:19;14.60;96.60
35463;DHT22;21578;47.892;9.970;2023-08-31T20:15:09;14.60;96.60
35463;DHT22;21578;47.892;9.970;2023-08-31T20:19:56;14.60;96.60
35463;DHT22;21578;47.892;9.970;2023-08-31T20:24:43;14.70;96.60
35463;DHT22;21578;47.892;9.970;2023-08-31T20:29:30;14.60;96.60
35463;DHT22;21578;47.892;9.970;2023-08-31T20:34:18;14.60;96.60
35463;DHT22;21578;47.892;9.970;2023-08-31T20:39:05;14.50;96.60
35463;DHT22;21578;47.892;9.970;2023-08-31T20:43:54;14.50;96.60
35463;DHT22;21578;47.892;9.970;2023-08-31T20:48:41;14.50;96.60
35463;DHT22;21578;47.892;9.970;2023-08-31T20:53:30;14.40;96.60
35463;DHT22;21578;47.892;9.970;2023-08-31T20:58:17;14.40;96.60
35463;DHT22;21578;47.892;9.970;2023-08-31T21:03:04;14.40;96.60
35463;DHT22;21578;47.892;9.970;2023-08-31T21:07:51;14.40;96.60
35463;DHT22;21578;47.892;9.970;2023-08-31T21:12:39;14.30;96.60
35463;DHT22;21578;47.892;9.970;2023-08-31T21:17:26;14.30;96.60
35463;DHT22;21578;47.892;9.970;2023-08-31T21:22:13;14.30;96.60
35463;DHT22;21578;47.892;9.970;2023-08-31T21:27:00;14.20;96.60
35463;DHT22;21578;47.892;9.970;2023-08-31T21:31:49;14.30;96.60
35463;DHT22;21578;47.892;9.970;2023-08-31T21:36:36;14.30;96.60
35463;DHT22;21578;47.892;9.970;2023-08-31T21:41:23;14.30;96.60
